Time;durP1;ratioP1;P1;durP2;ratioP2;P2;SDS_P1;SDS_P2;PMS_P1;PMS_P2;Temp;Humidity;BMP_temperature;BMP_pressure;BME280_temperature;BME280_humidity;BME280_pressure;Samples;Min_cycle;Max_cycle;Signal;HPM_P1;HPM_P2
2023/05/18 00:00:23;;;;;;;1.38;1.30;;;7.70;99.90;;;;;;5066410;28;20214;-64
2023/05/18 00:02:49;;;;;;;1.20;1.20;;;7.70;99.90;;;;;;5072903;28;20223;-63
2023/05/18 00:05:18;;;;;;;1.50;1.40;;;7.70;99.90;;;;;;5073507;28;20211;-64
2023/05/18 00:07:45;;;;;;;1.30;1.30;;;7.70;99.90;;;;;;5073420;28;20206;-63
2023/05/18 00:10:12;;;;;;;1.40;1.30;;;7.70;99.90;;;;;;5072870;28;20211;-62
2023/05/18 00:12:40;;;;;;;1.40;1.30;;;7.70;99.90;;;;;;5072827;28;21020;-63
2023/05/18 00:15:08;;;;;;;1.10;1.10;;;7.60;99.90;;;;;;5073375;28;20256;-62
2023/05/18 00:17:35;;;;;;;1.15;1.15;;;7.60;99.90;;;;;;5073539;28;20712;-63
2023/05/18 00:20:03;;;;;;;1.40;1.30;;;7.60;99.90;;;;;;5072006;28;20207;-63
2023/05/18 00:22:32;;;;;;;1.60;1.50;;;7.60;99.90;;;;;;5073485;28;20227;-62
2023/05/18 00:24:58;;;;;;;1.55;1.20;;;7.60;99.90;;;;;;5072931;28;20213;-62
2023/05/18 00:27:25;;;;;;;1.20;1.20;;;7.60;99.90;;;;;;5073037;28;20674;-63
2023/05/18 00:29:52;;;;;;;1.45;1.35;;;7.50;99.90;;;;;;5072256;28;20214;-63
2023/05/18 00:32:19;;;;;;;1.30;1.30;;;7.50;99.90;;;;;;5073515;28;20199;-62
2023/05/18 00:34:46;;;;;;;2.50;1.30;;;7.50;99.90;;;;;;5073458;28;20204;-62
2023/05/18 00:37:13;;;;;;;1.30;1.30;;;7.40;99.90;;;;;;5073652;28;20641;-65
2023/05/18 00:39:41;;;;;;;1.33;1.30;;;7.50;99.90;;;;;;5077910;28;20207;-63
2023/05/18 00:42:08;;;;;;;1.38;1.30;;;7.40;99.90;;;;;;5073227;28;20660;-68
2023/05/18 00:44:34;;;;;;;1.30;1.30;;;7.30;99.90;;;;;;5073808;28;20223;-64
2023/05/18 00:47:01;;;;;;;1.60;1.50;;;7.30;99.90;;;;;;5075245;28;20666;-63
2023/05/18 00:49:29;;;;;;;1.23;1.23;;;7.30;99.90;;;;;;5072558;28;20214;-62
2023/05/18 00:51:57;;;;;;;1.30;1.20;;;7.30;99.90;;;;;;5072559;28;20196;-63
2023/05/18 00:54:24;;;;;;;1.45;1.35;;;7.30;99.90;;;;;;5072715;28;20231;-63
2023/05/18 00:56:53;;;;;;;1.23;1.20;;;7.30;99.90;;;;;;5076034;28;20257;-63
2023/05/18 00:59:20;;;;;;;1.30;1.23;;;7.30;99.90;;;;;;5071826;28;20207;-62
2023/05/18 01:01:47;;;;;;;1.30;1.20;;;7.30;99.90;;;;;;5072610;28;20291;-62
2023/05/18 01:04:15;;;;;;;1.25;1.20;;;7.30;99.90;;;;;;5071990;28;20227;-63
2023/05/18 01:06:42;;;;;;;1.20;1.20;;;7.40;99.90;;;;;;5072588;28;20203;-62
2023/05/18 01:09:11;;;;;;;1.50;1.40;;;7.40;99.90;;;;;;5071687;28;20210;-64
2023/05/18 01:11:51;;;;;;;1.10;1.10;;;7.40;99.90;;;;;;5071858;28;20632;-63
2023/05/18 01:14:26;;;;;;;1.40;1.30;;;7.30;99.90;;;;;;5072199;28;20643;-64
2023/05/18 01:16:59;;;;;;;1.15;1.15;;;7.30;99.90;;;;;;5076193;28;20688;-63
2023/05/18 01:19:53;;;;;;;1.50;1.40;;;7.20;99.90;;;;;;5073694;28;20218;-64
2023/05/18 01:22:37;;;;;;;1.33;1.23;;;7.10;99.90;;;;;;5080293;28;20719;-63
2023/05/18 01:25:13;;;;;;;1.20;1.20;;;7.00;99.90;;;;;;5073269;28;20207;-64
2023/05/18 01:27:45;;;;;;;1.38;1.27;;;7.10;99.90;;;;;;5072151;28;20226;-63
2023/05/18 01:30:14;;;;;;;1.40;1.30;;;7.00;99.90;;;;;;5070944;28;20682;-63
2023/05/18 01:32:41;;;;;;;1.33;1.27;;;7.00;99.90;;;;;;5071976;28;20219;-63
2023/05/18 01:35:08;;;;;;;1.38;1.30;;;7.10;99.90;;;;;;5071871;28;20215;-64
2023/05/18 01:37:35;;;;;;;1.30;1.20;;;7.10;99.90;;;;;;5072232;28;20206;-64
2023/05/18 01:40:04;;;;;;;1.17;1.17;;;7.10;99.90;;;;;;5071374;28;20213;-62
2023/05/18 01:42:34;;;;;;;1.33;1.25;;;7.10;99.90;;;;;;5071180;28;20223;-64
2023/05/18 01:45:07;;;;;;;1.30;1.30;;;7.10;99.90;;;;;;5071916;28;20653;-62
2023/05/18 01:47:37;;;;;;;1.50;1.40;;;7.00;99.90;;;;;;5071636;28;20698;-62
2023/05/18 01:50:10;;;;;;;1.42;1.35;;;7.00;99.90;;;;;;5070619;28;20701;-63
2023/05/18 01:52:41;;;;;;;1.20;1.20;;;7.00;99.90;;;;;;5071590;28;20227;-62
2023/05/18 01:55:11;;;;;;;1.15;1.15;;;7.00;99.90;;;;;;5067349;28;20217;-62
2023/05/18 01:57:41;;;;;;;1.10;1.10;;;7.00;99.90;;;;;;5071872;28;20217;-63
2023/05/18 02:00:11;;;;;;;1.20;1.20;;;7.10;99.90;;;;;;5070890;28;20682;-63
2023/05/18 02:02:38;;;;;;;1.58;1.48;;;7.00;99.90;;;;;;5072437;28;20238;-63
2023/05/18 02:05:06;;;;;;;1.40;1.30;;;6.90;99.90;;;;;;5070179;28;20207;-63
2023/05/18 02:07:33;;;;;;;1.30;1.23;;;6.80;99.90;;;;;;5071651;28;20207;-64
2023/05/18 02:10:00;;;;;;;1.15;1.15;;;6.80;99.90;;;;;;5070470;28;20218;-63
2023/05/18 02:12:26;;;;;;;1.50;1.40;;;6.70;99.90;;;;;;5071148;28;20947;-63
2023/05/18 02:14:54;;;;;;;1.20;1.20;;;6.70;99.90;;;;;;5071333;28;20297;-63
2023/05/18 02:17:24;;;;;;;1.40;1.30;;;6.70;99.90;;;;;;5071135;28;20575;-63
2023/05/18 02:19:51;;;;;;;1.38;1.30;;;6.70;99.90;;;;;;5070459;28;20211;-63
2023/05/18 02:22:18;;;;;;;1.50;1.40;;;6.70;99.90;;;;;;5071168;28;20227;-64
2023/05/18 02:24:45;;;;;;;1.40;1.40;;;6.70;99.90;;;;;;5071361;28;20207;-64
2023/05/18 02:27:13;;;;;;;1.20;1.20;;;6.70;99.90;;;;;;5070942;28;20669;-64
2023/05/18 02:29:41;;;;;;;1.10;1.10;;;6.60;99.90;;;;;;5072020;28;20624;-63
2023/05/18 02:32:08;;;;;;;1.20;1.20;;;6.60;99.90;;;;;;5073226;28;20203;-63
2023/05/18 02:34:37;;;;;;;1.50;1.40;;;6.70;99.90;;;;;;5072975;28;20254;-62
2023/05/18 02:37:05;;;;;;;1.60;1.50;;;6.70;99.90;;;;;;5071414;28;20203;-63
2023/05/18 02:39:32;;;;;;;1.38;1.33;;;6.80;99.90;;;;;;5070283;28;20207;-65
2023/05/18 02:41:59;;;;;;;1.10;1.10;;;6.70;99.90;;;;;;5072785;28;20223;-64
2023/05/18 02:44:26;;;;;;;1.23;1.20;;;6.80;99.90;;;;;;5075103;28;20639;-62
2023/05/18 02:46:53;;;;;;;1.45;1.27;;;6.80;99.90;;;;;;5074903;28;20293;-62
2023/05/18 02:49:20;;;;;;;1.33;1.33;;;6.70;99.90;;;;;;5074069;28;20246;-62
2023/05/18 02:51:48;;;;;;;1.27;1.27;;;6.70;99.90;;;;;;5072927;28;20199;-63
2023/05/18 02:54:15;;;;;;;1.25;1.25;;;6.70;99.90;;;;;;5072456;28;20302;-62
2023/05/18 02:56:42;;;;;;;1.45;1.40;;;6.70;99.90;;;;;;5075103;28;20195;-63
2023/05/18 02:59:08;;;;;;;1.17;1.17;;;6.70;99.90;;;;;;5074159;28;20235;-63
2023/05/18 03:01:36;;;;;;;1.13;1.13;;;6.60;99.90;;;;;;5074471;28;20294;-63
2023/05/18 03:04:03;;;;;;;1.00;1.00;;;6.50;99.90;;;;;;5074553;28;20980;-65
2023/05/18 03:06:31;;;;;;;1.20;1.20;;;6.50;99.90;;;;;;5074594;28;20669;-65
2023/05/18 03:08:59;;;;;;;1.10;1.10;;;6.60;99.90;;;;;;5074283;28;20199;-64
2023/05/18 03:11:26;;;;;;;1.30;1.30;;;6.70;99.90;;;;;;5073520;28;20203;-64
2023/05/18 03:13:53;;;;;;;1.10;1.10;;;6.70;99.90;;;;;;5074283;28;20237;-64
2023/05/18 03:16:20;;;;;;;1.20;1.20;;;6.70;99.90;;;;;;5074485;28;20204;-64
2023/05/18 03:18:47;;;;;;;1.20;1.20;;;6.70;99.90;;;;;;5074337;28;20581;-62
2023/05/18 03:21:15;;;;;;;1.40;1.30;;;6.60;99.90;;;;;;5073308;28;20203;-63
2023/05/18 03:23:42;;;;;;;1.33;1.30;;;6.60;99.90;;;;;;5074047;28;20230;-63
2023/05/18 03:26:11;;;;;;;1.10;1.10;;;6.60;99.90;;;;;;5074121;28;20203;-63
2023/05/18 03:28:38;;;;;;;1.20;1.20;;;6.60;99.90;;;;;;5074055;28;20205;-63
2023/05/18 03:31:05;;;;;;;1.20;1.20;;;6.60;99.90;;;;;;5073336;28;20238;-63
2023/05/18 03:33:32;;;;;;;1.17;1.17;;;6.60;99.90;;;;;;5073979;28;20224;-63
2023/05/18 03:36:03;;;;;;;1.30;1.30;;;6.60;99.90;;;;;;5074434;28;20581;-63
2023/05/18 03:38:29;;;;;;;1.23;1.23;;;6.60;99.90;;;;;;5074005;28;20681;-64
2023/05/18 03:40:56;;;;;;;1.10;1.10;;;6.60;99.90;;;;;;5073001;28;20199;-64
2023/05/18 03:43:25;;;;;;;1.30;1.20;;;6.60;99.90;;;;;;5073860;28;20231;-63
2023/05/18 03:45:51;;;;;;;1.20;1.20;;;6.50;99.90;;;;;;5073898;28;20211;-64
2023/05/18 03:48:18;;;;;;;1.83;1.42;;;6.50;99.90;;;;;;5073841;28;20207;-63
2023/05/18 03:50:45;;;;;;;1.40;1.30;;;6.50;99.90;;;;;;5073109;28;20207;-65
2023/05/18 03:53:12;;;;;;;1.40;1.30;;;6.40;99.90;;;;;;5072675;28;20747;-63
2023/05/18 03:55:40;;;;;;;1.50;1.40;;;6.40;99.90;;;;;;5073587;28;20199;-64
2023/05/18 03:58:07;;;;;;;1.10;1.10;;;6.40;99.90;;;;;;5074196;28;20207;-62
2023/05/18 04:00:35;;;;;;;1.13;1.13;;;6.40;99.90;;;;;;5073272;28;20203;-63
2023/05/18 04:03:03;;;;;;;1.20;1.20;;;6.50;99.90;;;;;;5073495;28;20231;-64
2023/05/18 04:05:30;;;;;;;1.10;1.10;;;6.50;99.90;;;;;;5073701;28;20245;-64
2023/05/18 04:07:57;;;;;;;1.48;1.27;;;6.50;99.90;;;;;;5073377;28;20678;-65
2023/05/18 04:10:25;;;;;;;1.45;1.35;;;6.50;99.90;;;;;;5072641;28;20654;-62
2023/05/18 04:12:52;;;;;;;1.10;1.10;;;6.50;99.90;;;;;;5073690;28;20238;-63
2023/05/18 04:15:18;;;;;;;1.23;1.10;;;6.50;99.90;;;;;;5076720;28;20211;-62
2023/05/18 04:17:48;;;;;;;1.00;1.00;;;6.50;99.90;;;;;;5073924;28;20199;-63
2023/05/18 04:20:15;;;;;;;1.52;1.33;;;6.70;99.90;;;;;;5074191;28;20753;-63
2023/05/18 04:22:45;;;;;;;1.00;1.00;;;6.70;99.90;;;;;;5074702;28;20643;-63
2023/05/18 04:25:12;;;;;;;1.48;1.17;;;6.70;99.90;;;;;;5074287;28;20215;-62
2023/05/18 04:27:40;;;;;;;1.10;1.10;;;6.70;99.90;;;;;;5073175;28;20209;-63
2023/05/18 04:30:09;;;;;;;1.30;1.20;;;6.70;99.90;;;;;;5072560;28;20226;-61
2023/05/18 04:32:36;;;;;;;1.23;1.23;;;6.70;99.90;;;;;;5073184;28;20744;-63
2023/05/18 04:35:06;;;;;;;0.98;0.98;;;6.70;99.90;;;;;;5072871;28;20226;-62
2023/05/18 04:37:33;;;;;;;1.23;1.20;;;6.70;99.90;;;;;;5072536;28;20736;-62
2023/05/18 04:40:06;;;;;;;1.10;1.10;;;6.90;99.90;;;;;;5072120;28;20207;-62
2023/05/18 04:42:33;;;;;;;1.17;1.17;;;6.90;99.90;;;;;;5072670;28;20242;-63
2023/05/18 04:45:00;;;;;;;1.10;1.10;;;6.70;99.90;;;;;;5072714;28;20637;-63
2023/05/18 04:47:28;;;;;;;1.20;1.20;;;6.90;99.90;;;;;;5073711;28;20206;-62
2023/05/18 04:49:55;;;;;;;1.23;1.13;;;7.00;99.90;;;;;;5072523;28;20231;-62
2023/05/18 04:52:24;;;;;;;1.08;1.08;;;7.00;99.90;;;;;;5069990;28;20203;-62
2023/05/18 04:54:51;;;;;;;1.30;1.30;;;7.10;99.90;;;;;;5072927;28;20199;-62
2023/05/18 04:57:18;;;;;;;1.00;1.00;;;7.10;99.90;;;;;;5073788;28;20219;-63
2023/05/18 04:59:46;;;;;;;1.90;1.30;;;7.20;99.90;;;;;;5071393;28;20203;-63
2023/05/18 05:02:13;;;;;;;1.20;1.20;;;7.20;99.90;;;;;;5072178;28;20218;-63
2023/05/18 05:04:40;;;;;;;1.20;1.20;;;7.30;99.90;;;;;;5072332;28;20227;-63
2023/05/18 05:07:06;;;;;;;1.52;1.42;;;7.30;99.90;;;;;;5071459;28;20207;-63
2023/05/18 05:09:35;;;;;;;1.15;1.15;;;7.20;99.90;;;;;;5071575;28;20203;-64
2023/05/18 05:12:02;;;;;;;1.30;1.30;;;7.20;99.90;;;;;;5072322;28;20214;-65
2023/05/18 05:14:28;;;;;;;1.50;1.40;;;7.40;99.90;;;;;;5071927;28;20440;-64
2023/05/18 05:16:55;;;;;;;1.42;1.40;;;7.50;99.90;;;;;;5071707;28;20209;-64
2023/05/18 05:19:22;;;;;;;1.50;1.40;;;7.70;99.90;;;;;;5071453;28;20252;-62
2023/05/18 05:21:49;;;;;;;1.20;1.20;;;7.90;99.90;;;;;;5071849;28;20257;-62
2023/05/18 05:24:16;;;;;;;1.20;1.20;;;8.10;99.90;;;;;;5072025;28;20254;-63
2023/05/18 05:26:44;;;;;;;1.15;1.15;;;8.30;99.90;;;;;;5072070;28;20211;-62
2023/05/18 05:29:11;;;;;;;1.33;1.30;;;8.40;99.90;;;;;;5071449;28;20204;-61
2023/05/18 05:31:37;;;;;;;1.13;1.13;;;8.60;99.90;;;;;;5072242;28;20211;-61
2023/05/18 05:34:05;;;;;;;1.30;1.20;;;8.70;99.90;;;;;;5071976;28;20733;-62
2023/05/18 05:36:32;;;;;;;1.40;1.30;;;8.90;99.90;;;;;;5071652;28;20207;-63
2023/05/18 05:38:59;;;;;;;1.33;1.25;;;9.10;99.90;;;;;;5071387;28;20208;-63
2023/05/18 05:41:26;;;;;;;1.20;1.20;;;9.20;99.90;;;;;;5071430;28;20298;-63
2023/05/18 05:43:55;;;;;;;1.20;1.20;;;9.50;99.90;;;;;;5071391;28;20306;-64
2023/05/18 05:46:22;;;;;;;1.47;1.37;;;9.60;99.90;;;;;;5066181;28;20227;-64
2023/05/18 05:48:49;;;;;;;1.63;1.52;;;9.70;99.90;;;;;;5071391;28;20699;-62
2023/05/18 05:51:16;;;;;;;1.10;1.10;;;9.80;99.90;;;;;;5071190;28;20550;-63
2023/05/18 05:53:44;;;;;;;1.40;1.40;;;9.80;99.90;;;;;;5064906;28;20223;-64
2023/05/18 05:56:11;;;;;;;1.45;1.35;;;9.90;99.90;;;;;;5051536;28;20206;-63
2023/05/18 05:58:38;;;;;;;1.50;1.40;;;10.00;99.90;;;;;;5051366;28;20206;-64
2023/05/18 06:01:07;;;;;;;1.10;1.10;;;10.10;99.90;;;;;;5050615;28;20203;-63
2023/05/18 06:03:34;;;;;;;1.52;1.42;;;10.10;99.90;;;;;;5051183;28;20232;-63
2023/05/18 06:06:01;;;;;;;1.45;1.38;;;10.10;99.90;;;;;;5063067;28;20198;-62
2023/05/18 06:08:27;;;;;;;1.60;1.50;;;10.30;99.90;;;;;;5067696;28;20199;-60
2023/05/18 06:10:55;;;;;;;1.60;1.50;;;10.40;99.90;;;;;;5068069;28;20199;-62
2023/05/18 06:13:22;;;;;;;1.67;1.58;;;10.40;99.90;;;;;;5065784;28;20218;-62
2023/05/18 06:15:49;;;;;;;1.50;1.40;;;10.50;99.90;;;;;;5071186;28;20203;-65
2023/05/18 06:18:17;;;;;;;1.55;1.45;;;10.60;99.90;;;;;;5071033;28;20211;-61
2023/05/18 06:20:44;;;;;;;1.73;1.33;;;10.70;99.90;;;;;;5070211;28;20211;-62
2023/05/18 06:23:11;;;;;;;1.50;1.40;;;10.70;99.90;;;;;;5070967;28;20325;-63
2023/05/18 06:25:37;;;;;;;1.52;1.50;;;10.80;99.90;;;;;;5070913;28;20203;-63
2023/05/18 06:28:04;;;;;;;1.50;1.40;;;11.00;99.90;;;;;;5071386;28;20225;-63
2023/05/18 06:30:31;;;;;;;1.73;1.63;;;11.20;99.90;;;;;;5070522;28;20303;-63
2023/05/18 06:32:58;;;;;;;1.70;1.60;;;11.10;99.90;;;;;;5071276;28;20625;-63
2023/05/18 06:35:26;;;;;;;1.52;1.42;;;11.20;99.90;;;;;;5071930;28;20682;-62
2023/05/18 06:37:53;;;;;;;1.48;1.38;;;11.20;99.90;;;;;;5071957;28;20203;-63
2023/05/18 06:40:20;;;;;;;1.60;1.50;;;11.30;99.90;;;;;;5072676;28;20569;-63
2023/05/18 06:42:47;;;;;;;1.40;1.30;;;11.40;99.90;;;;;;5071780;28;20230;-62
2023/05/18 06:45:13;;;;;;;1.70;1.60;;;11.60;99.90;;;;;;5065616;28;20203;-65
2023/05/18 06:47:41;;;;;;;1.30;1.30;;;11.70;99.90;;;;;;5071133;28;20217;-65
2023/05/18 06:50:09;;;;;;;1.92;1.70;;;11.90;99.90;;;;;;5067196;28;20196;-64
2023/05/18 06:52:37;;;;;;;1.70;1.60;;;12.00;99.90;;;;;;5059653;28;20241;-64
2023/05/18 06:55:06;;;;;;;1.25;1.25;;;12.00;99.90;;;;;;5067523;28;20211;-63
2023/05/18 06:57:33;;;;;;;1.52;1.42;;;12.20;99.90;;;;;;5069274;28;20257;-63
2023/05/18 07:00:00;;;;;;;1.48;1.38;;;12.30;99.90;;;;;;5061462;28;20211;-63
2023/05/18 07:02:27;;;;;;;1.50;1.40;;;12.50;99.90;;;;;;5070625;28;20211;-62
2023/05/18 07:04:54;;;;;;;1.05;1.05;;;12.60;99.90;;;;;;5069070;28;20216;-63
2023/05/18 07:07:20;;;;;;;1.40;1.30;;;12.60;99.90;;;;;;5060820;28;20211;-63
2023/05/18 07:09:49;;;;;;;1.73;1.63;;;12.70;99.90;;;;;;5063890;28;20203;-62
2023/05/18 07:12:15;;;;;;;1.70;1.60;;;12.90;99.90;;;;;;5069595;28;20195;-62
2023/05/18 07:14:42;;;;;;;1.50;1.40;;;13.10;99.90;;;;;;5070615;28;20305;-64
2023/05/18 07:17:09;;;;;;;1.67;1.58;;;13.20;99.90;;;;;;5070706;28;20587;-64
2023/05/18 07:19:36;;;;;;;1.63;1.50;;;13.10;99.90;;;;;;5069544;28;20203;-64
2023/05/18 07:22:03;;;;;;;1.40;1.30;;;13.20;99.90;;;;;;5070924;28;20629;-62
2023/05/18 07:24:30;;;;;;;1.50;1.40;;;13.30;99.90;;;;;;5070239;28;20273;-63
2023/05/18 07:26:59;;;;;;;1.38;1.30;;;13.50;99.90;;;;;;5070620;28;20685;-64
2023/05/18 07:29:26;;;;;;;1.30;1.20;;;13.80;99.90;;;;;;5067428;28;20294;-64
2023/05/18 07:31:52;;;;;;;1.20;1.20;;;14.00;99.90;;;;;;5070946;28;20224;-64
2023/05/18 07:34:19;;;;;;;1.42;1.33;;;14.20;99.90;;;;;;5065613;28;20247;-63
2023/05/18 07:36:46;;;;;;;1.58;1.48;;;14.10;99.90;;;;;;5064327;28;20223;-63
2023/05/18 07:39:18;;;;;;;2.22;1.35;;;14.30;99.90;;;;;;5073219;28;20206;-64
2023/05/18 07:41:46;;;;;;;1.52;1.42;;;14.20;99.90;;;;;;5073987;28;20203;-63
2023/05/18 07:44:15;;;;;;;1.35;1.20;;;14.40;99.90;;;;;;5073591;28;20226;-63
2023/05/18 07:46:43;;;;;;;1.50;1.40;;;14.50;99.90;;;;;;5073978;28;20205;-64
2023/05/18 07:49:09;;;;;;;1.77;1.50;;;14.60;99.90;;;;;;5072946;28;20207;-62
2023/05/18 07:51:36;;;;;;;1.50;1.40;;;14.70;99.90;;;;;;5073576;28;20211;-64
2023/05/18 07:54:04;;;;;;;1.40;1.33;;;14.80;99.90;;;;;;5067814;28;20712;-63
2023/05/18 07:56:30;;;;;;;1.30;1.20;;;14.80;99.90;;;;;;5073844;28;20610;-61
2023/05/18 07:58:57;;;;;;;1.40;1.38;;;14.90;99.90;;;;;;5073743;28;20199;-65
2023/05/18 08:01:28;;;;;;;1.60;1.50;;;15.00;99.90;;;;;;5067608;28;20203;-63
2023/05/18 08:03:55;;;;;;;1.60;1.50;;;14.90;99.90;;;;;;5072165;28;20242;-61
2023/05/18 08:06:22;;;;;;;1.50;1.40;;;14.90;99.90;;;;;;5065972;28;20245;-62
2023/05/18 08:08:49;;;;;;;1.70;1.60;;;15.10;99.90;;;;;;5062774;28;20232;-63
2023/05/18 08:11:16;;;;;;;2.00;1.80;;;15.10;99.90;;;;;;5067601;28;20253;-64
2023/05/18 08:13:43;;;;;;;2.17;1.83;;;15.20;99.90;;;;;;5052982;28;20228;-65
2023/05/18 08:16:10;;;;;;;1.60;1.50;;;15.30;99.90;;;;;;5052799;28;20630;-62
2023/05/18 08:18:38;;;;;;;1.35;1.27;;;15.50;99.90;;;;;;5066558;28;20666;-64
2023/05/18 08:21:07;;;;;;;1.73;1.63;;;15.40;99.90;;;;;;5073826;28;20764;-64
2023/05/18 08:23:34;;;;;;;1.60;1.50;;;15.50;99.90;;;;;;5061030;28;20232;-63
2023/05/18 08:26:02;;;;;;;1.63;1.50;;;15.60;99.90;;;;;;5068868;28;20208;-63
2023/05/18 08:28:29;;;;;;;1.85;1.70;;;15.60;99.90;;;;;;5059715;28;20210;-63
2023/05/18 08:30:56;;;;;;;1.70;1.60;;;15.70;99.90;;;;;;5066131;28;20736;-63
2023/05/18 08:33:23;;;;;;;1.77;1.52;;;16.00;99.90;;;;;;5072134;28;20255;-63
2023/05/18 08:35:51;;;;;;;1.30;1.20;;;16.10;99.90;;;;;;5074761;28;20305;-62
2023/05/18 08:38:18;;;;;;;2.05;1.50;;;16.30;99.90;;;;;;5064917;28;20663;-63
2023/05/18 08:40:53;;;;;;;1.65;1.55;;;16.20;99.90;;;;;;5064435;28;20577;-63
2023/05/18 08:43:22;;;;;;;1.48;1.38;;;16.50;99.90;;;;;;5068287;28;20222;-63
2023/05/18 08:45:52;;;;;;;1.50;1.40;;;16.40;99.90;;;;;;5072641;28;20286;-62
2023/05/18 08:48:22;;;;;;;1.85;1.70;;;16.20;99.90;;;;;;5074457;28;20199;-63
2023/05/18 08:50:50;;;;;;;1.40;1.30;;;16.30;99.90;;;;;;5070273;28;20199;-65
2023/05/18 08:53:20;;;;;;;1.45;1.35;;;16.40;99.90;;;;;;5070838;28;20280;-62
2023/05/18 08:55:49;;;;;;;1.70;1.60;;;16.60;99.90;;;;;;5066991;28;20290;-63
2023/05/18 08:58:20;;;;;;;1.55;1.42;;;16.80;99.90;;;;;;5077411;28;20647;-63
2023/05/18 09:00:52;;;;;;;1.50;1.40;;;16.80;99.90;;;;;;5050240;28;20204;-63
2023/05/18 09:03:20;;;;;;;1.60;1.40;;;16.70;99.90;;;;;;5052327;28;20231;-63
2023/05/18 09:05:48;;;;;;;2.00;1.63;;;16.70;99.90;;;;;;5052070;28;20639;-62
2023/05/18 09:08:16;;;;;;;1.40;1.30;;;16.80;99.90;;;;;;5052208;28;20294;-62
2023/05/18 09:10:45;;;;;;;1.67;1.58;;;16.40;99.90;;;;;;5051401;28;20212;-61
2023/05/18 09:13:12;;;;;;;1.98;1.55;;;16.60;99.90;;;;;;5051960;28;20240;-62
2023/05/18 09:15:39;;;;;;;1.50;1.40;;;16.80;99.90;;;;;;5051453;28;20208;-62
2023/05/18 09:18:06;;;;;;;1.50;1.40;;;17.00;99.90;;;;;;5052218;28;20230;-64
2023/05/18 09:20:33;;;;;;;2.05;1.80;;;16.80;99.90;;;;;;5051041;28;20300;-64
2023/05/18 09:23:00;;;;;;;1.45;1.35;;;17.00;99.90;;;;;;5051861;28;20234;-64
2023/05/18 09:25:27;;;;;;;1.67;1.58;;;17.10;99.90;;;;;;5051973;28;20223;-63
2023/05/18 09:27:55;;;;;;;1.50;1.40;;;17.10;99.90;;;;;;5051515;28;20214;-62
2023/05/18 09:30:24;;;;;;;1.77;1.67;;;17.00;99.90;;;;;;5051150;28;20215;-64
2023/05/18 09:32:53;;;;;;;1.48;1.38;;;17.30;99.90;;;;;;5052032;28;20227;-62
2023/05/18 09:35:20;;;;;;;1.38;1.30;;;17.60;99.90;;;;;;5051717;28;20200;-62
2023/05/18 09:37:47;;;;;;;1.58;1.48;;;17.60;99.90;;;;;;5051804;28;20211;-63
2023/05/18 09:40:15;;;;;;;1.60;1.50;;;17.50;99.90;;;;;;5050520;28;20208;-65
2023/05/18 09:42:43;;;;;;;1.10;1.10;;;17.70;99.90;;;;;;5051371;28;20708;-63
2023/05/18 09:45:18;;;;;;;1.42;1.33;;;17.90;99.90;;;;;;5051105;28;20220;-63
2023/05/18 09:47:44;;;;;;;1.58;1.48;;;17.90;99.90;;;;;;5051406;28;20863;-64
2023/05/18 09:50:12;;;;;;;1.70;1.60;;;18.10;99.90;;;;;;5051065;28;20219;-63
2023/05/18 09:52:43;;;;;;;1.40;1.30;;;17.90;99.90;;;;;;5050847;28;20224;-62
2023/05/18 09:55:10;;;;;;;1.10;1.10;;;17.90;99.90;;;;;;5051258;28;20208;-65
2023/05/18 09:57:42;;;;;;;1.23;1.23;;;18.40;99.90;;;;;;5051343;28;20208;-66
2023/05/18 10:00:11;;;;;;;1.27;1.27;;;18.80;99.90;;;;;;5050523;28;20233;-64
2023/05/18 10:02:41;;;;;;;1.92;1.45;;;19.00;99.90;;;;;;5051129;28;20591;-64
2023/05/18 10:05:19;;;;;;;1.92;1.40;;;18.90;99.90;;;;;;5051360;28;20236;-65
2023/05/18 10:07:47;;;;;;;1.30;1.20;;;18.60;99.90;;;;;;5051311;28;20204;-64
2023/05/18 10:10:17;;;;;;;1.23;1.23;;;18.60;99.90;;;;;;5050277;28;20210;-62
2023/05/18 10:12:44;;;;;;;1.40;1.20;;;19.00;99.90;;;;;;5050727;28;20714;-63
2023/05/18 10:15:14;;;;;;;1.30;1.20;;;19.20;99.90;;;;;;5051497;28;20199;-62
2023/05/18 10:17:44;;;;;;;1.60;1.50;;;19.30;99.90;;;;;;5051371;28;20200;-63
2023/05/18 10:20:14;;;;;;;1.73;1.30;;;19.30;99.90;;;;;;5050918;28;20230;-58
2023/05/18 10:22:42;;;;;;;1.70;1.60;;;19.40;99.90;;;;;;5051339;28;20274;-60
2023/05/18 10:25:11;;;;;;;1.60;1.30;;;19.40;99.90;;;;;;5051509;28;20599;-57
2023/05/18 10:27:38;;;;;;;1.40;1.30;;;19.40;99.90;;;;;;5051521;28;20291;-57
2023/05/18 10:30:08;;;;;;;1.40;1.30;;;19.30;99.90;;;;;;5050837;28;20674;-58
2023/05/18 10:32:36;;;;;;;2.10;1.50;;;19.30;99.90;;;;;;5051409;28;20294;-57
2023/05/18 10:35:07;;;;;;;1.75;1.60;;;19.70;99.90;;;;;;5051029;28;20291;-58
2023/05/18 10:37:35;;;;;;;1.50;1.40;;;20.00;99.90;;;;;;5051030;28;20298;-58
2023/05/18 10:40:05;;;;;;;1.40;1.30;;;20.10;99.90;;;;;;5050311;28;20212;-58
2023/05/18 10:42:33;;;;;;;1.60;1.50;;;20.00;99.90;;;;;;5051556;28;20219;-59
2023/05/18 10:45:00;;;;;;;1.80;1.70;;;19.80;99.90;;;;;;5051042;28;20220;-58
2023/05/18 10:47:28;;;;;;;1.60;1.50;;;19.70;99.90;;;;;;5051300;28;20210;-59
2023/05/18 10:49:55;;;;;;;1.48;1.38;;;19.50;99.90;;;;;;5050760;28;20246;-64
2023/05/18 10:52:25;;;;;;;1.30;1.20;;;19.30;99.90;;;;;;5052335;28;20208;-62
2023/05/18 10:54:52;;;;;;;1.10;1.10;;;19.50;99.90;;;;;;5052068;28;20212;-63
2023/05/18 10:57:21;;;;;;;1.20;1.20;;;19.70;99.90;;;;;;5057361;28;20211;-63
2023/05/18 10:59:48;;;;;;;1.35;1.25;;;19.90;99.90;;;;;;5058543;28;20208;-64
2023/05/18 11:02:18;;;;;;;1.17;1.17;;;19.90;99.90;;;;;;5051430;28;20200;-64
2023/05/18 11:04:47;;;;;;;1.08;1.05;;;20.20;99.90;;;;;;5053576;28;20227;-63
2023/05/18 11:07:15;;;;;;;1.35;1.33;;;20.30;99.90;;;;;;5055873;28;20204;-63
2023/05/18 11:09:44;;;;;;;1.50;1.40;;;20.20;99.90;;;;;;5054943;28;20671;-62
2023/05/18 11:12:16;;;;;;;1.15;1.15;;;20.20;99.90;;;;;;5055786;28;20200;-64
2023/05/18 11:14:50;;;;;;;1.33;1.20;;;20.40;99.90;;;;;;5058393;28;20618;-64
2023/05/18 11:17:20;;;;;;;1.25;1.25;;;20.70;99.90;;;;;;5056711;28;20243;-64
2023/05/18 11:20:14;;;;;;;1.00;1.00;;;20.80;99.90;;;;;;5054417;28;20208;-63
2023/05/18 11:22:44;;;;;;;1.02;1.02;;;20.80;99.90;;;;;;5050364;28;20227;-64
2023/05/18 11:25:40;;;;;;;1.50;1.40;;;21.00;99.90;;;;;;5054455;28;20227;-65
2023/05/18 11:28:09;;;;;;;1.48;1.38;;;21.10;99.90;;;;;;5057057;28;20579;-62
2023/05/18 11:30:48;;;;;;;1.40;1.30;;;21.10;99.90;;;;;;5053650;28;20678;-64
2023/05/18 11:33:18;;;;;;;1.15;1.15;;;21.10;99.90;;;;;;5053549;28;20235;-64
2023/05/18 11:36:05;;;;;;;1.50;1.40;;;21.20;99.90;;;;;;5053892;28;20206;-64
2023/05/18 11:38:46;;;;;;;1.02;1.02;;;20.90;99.90;;;;;;5054618;28;20207;-64
2023/05/18 11:41:31;;;;;;;1.20;1.20;;;21.00;99.90;;;;;;5052575;28;20218;-63
2023/05/18 11:44:16;;;;;;;1.25;1.25;;;21.10;99.90;;;;;;5053903;28;20247;-64
2023/05/18 11:46:53;;;;;;;1.33;1.23;;;20.70;99.90;;;;;;5071695;22;20955;-66
2023/05/18 11:49:22;;;;;;;1.20;1.20;;;20.50;99.90;;;;;;5038797;28;20204;-66
2023/05/18 11:52:06;;;;;;;1.50;1.27;;;20.50;99.90;;;;;;5023795;28;20197;-66
2023/05/18 11:54:52;;;;;;;1.10;1.10;;;20.70;99.90;;;;;;5024320;28;20684;-66
2023/05/18 11:57:23;;;;;;;1.30;1.20;;;20.60;99.90;;;;;;5023955;28;20244;-67
2023/05/18 11:59:56;;;;;;;1.60;1.50;;;20.40;99.90;;;;;;5021539;28;20208;-65
2023/05/18 12:02:25;;;;;;;1.50;1.40;;;20.20;99.90;;;;;;5028775;28;20200;-67
2023/05/18 12:04:53;;;;;;;1.25;1.17;;;20.00;99.90;;;;;;5033971;28;20213;-65
2023/05/18 12:07:21;;;;;;;1.60;1.35;;;20.00;99.90;;;;;;5033177;28;20228;-65
2023/05/18 12:09:48;;;;;;;1.60;1.30;;;19.80;99.90;;;;;;5033131;28;20283;-65
2023/05/18 12:12:18;;;;;;;1.45;1.35;;;19.90;99.90;;;;;;5038542;28;20201;-67
2023/05/18 12:14:53;;;;;;;1.35;1.25;;;20.10;99.90;;;;;;5034332;28;20682;-66
2023/05/18 12:17:20;;;;;;;1.35;1.17;;;20.40;99.90;;;;;;5034547;28;20234;-65
2023/05/18 12:19:48;;;;;;;1.40;1.30;;;20.20;99.90;;;;;;5054413;28;20692;-66
2023/05/18 12:22:16;;;;;;;1.40;1.30;;;19.90;99.90;;;;;;5055556;28;20211;-67
2023/05/18 12:24:43;;;;;;;1.40;1.30;;;19.80;99.90;;;;;;5054639;28;20874;-67
2023/05/18 12:27:11;;;;;;;1.40;1.30;;;19.80;99.90;;;;;;5054022;28;20228;-66
2023/05/18 12:29:39;;;;;;;1.35;1.25;;;19.80;99.90;;;;;;5053031;28;20265;-66
2023/05/18 12:32:10;;;;;;;1.20;1.20;;;19.80;99.90;;;;;;5053269;28;20204;-66
2023/05/18 12:34:37;;;;;;;1.55;1.42;;;20.00;99.90;;;;;;5053164;28;20588;-66
2023/05/18 12:37:06;;;;;;;1.30;1.20;;;20.30;99.90;;;;;;5053411;28;20224;-66
2023/05/18 12:39:33;;;;;;;1.50;1.40;;;20.70;99.90;;;;;;5036522;28;20211;-66
2023/05/18 12:42:14;;;;;;;1.52;1.42;;;20.90;99.90;;;;;;5030534;28;20794;-66
2023/05/18 12:44:43;;;;;;;1.20;1.20;;;21.00;99.90;;;;;;5032834;28;20228;-66
2023/05/18 12:47:12;;;;;;;1.25;1.15;;;20.90;99.90;;;;;;5032333;28;20613;-68
2023/05/18 12:49:40;;;;;;;1.10;1.10;;;21.00;99.90;;;;;;5032069;28;20204;-66
2023/05/18 12:52:12;;;;;;;1.40;1.30;;;21.10;99.90;;;;;;5031648;28;20272;-66
2023/05/18 12:54:57;;;;;;;1.30;1.20;;;21.30;99.90;;;;;;5029604;28;20201;-66
2023/05/18 12:57:29;;;;;;;1.40;1.30;;;21.30;99.90;;;;;;5029826;28;20789;-66